sensor_id;sensor_type;location;lat;lon;timestamp;temperature;humidity
68804;SHT31;55787;52.678;13.314;2022-12-18T00:01:27;-5.04;97.82
68804;SHT31;55787;52.678;13.314;2022-12-18T00:03:55;-4.97;97.22
68804;SHT31;55787;52.678;13.314;2022-12-18T00:06:23;-4.97;96.83
68804;SHT31;55787;52.678;13.314;2022-12-18T00:08:50;-4.89;96.49
68804;SHT31;55787;52.678;13.314;2022-12-18T00:11:20;-5.00;96.62
68804;SHT31;55787;52.678;13.314;2022-12-18T00:13:47;-5.13;97.10
68804;SHT31;55787;52.678;13.314;2022-12-18T00:16:17;-5.26;98.12
68804;SHT31;55787;52.678;13.314;2022-12-18T00:18:48;-5.24;97.95
68804;SHT31;55787;52.678;13.314;2022-12-18T00:21:15;-5.17;97.83
68804;SHT31;55787;52.678;13.314;2022-12-18T00:23:43;-5.20;97.57
68804;SHT31;55787;52.678;13.314;2022-12-18T00:26:16;-5.11;97.63
68804;SHT31;55787;52.678;13.314;2022-12-18T00:28:44;-5.10;96.96
68804;SHT31;55787;52.678;13.314;2022-12-18T00:31:14;-5.13;97.28
68804;SHT31;55787;52.678;13.314;2022-12-18T00:33:42;-5.13;97.16
68804;SHT31;55787;52.678;13.314;2022-12-18T00:36:11;-5.14;97.28
68804;SHT31;55787;52.678;13.314;2022-12-18T00:38:38;-5.06;97.12
68804;SHT31;55787;52.678;13.314;2022-12-18T00:41:07;-5.20;96.79
68804;SHT31;55787;52.678;13.314;2022-12-18T00:43:34;-5.18;96.92
68804;SHT31;55787;52.678;13.314;2022-12-18T00:46:01;-5.30;97.04
68804;SHT31;55787;52.678;13.314;2022-12-18T00:48:29;-5.38;97.81
68804;SHT31;55787;52.678;13.314;2022-12-18T00:50:55;-5.35;97.74
68804;SHT31;55787;52.678;13.314;2022-12-18T00:53:22;-5.27;97.80
68804;SHT31;55787;52.678;13.314;2022-12-18T00:55:49;-5.21;97.61
68804;SHT31;55787;52.678;13.314;2022-12-18T00:58:16;-5.03;96.44
68804;SHT31;55787;52.678;13.314;2022-12-18T01:00:43;-4.92;96.22
68804;SHT31;55787;52.678;13.314;2022-12-18T01:03:13;-4.90;95.64
68804;SHT31;55787;52.678;13.314;2022-12-18T01:05:41;-5.03;95.90
68804;SHT31;55787;52.678;13.314;2022-12-18T01:08:08;-4.99;95.70
68804;SHT31;55787;52.678;13.314;2022-12-18T01:10:35;-5.01;95.32
68804;SHT31;55787;52.678;13.314;2022-12-18T01:13:01;-5.14;95.54
68804;SHT31;55787;52.678;13.314;2022-12-18T01:15:28;-5.20;96.04
68804;SHT31;55787;52.678;13.314;2022-12-18T01:17:55;-5.23;96.19
68804;SHT31;55787;52.678;13.314;2022-12-18T01:20:21;-5.30;96.11
68804;SHT31;55787;52.678;13.314;2022-12-18T01:22:48;-5.21;96.49
68804;SHT31;55787;52.678;13.314;2022-12-18T01:25:15;-5.38;96.66
68804;SHT31;55787;52.678;13.314;2022-12-18T01:27:42;-5.27;96.45
68804;SHT31;55787;52.678;13.314;2022-12-18T01:30:09;-5.23;95.58
68804;SHT31;55787;52.678;13.314;2022-12-18T01:32:37;-5.16;95.26
68804;SHT31;55787;52.678;13.314;2022-12-18T01:35:04;-5.20;94.86
68804;SHT31;55787;52.678;13.314;2022-12-18T01:37:30;-5.27;95.34
68804;SHT31;55787;52.678;13.314;2022-12-18T01:39:57;-5.31;95.37
68804;SHT31;55787;52.678;13.314;2022-12-18T01:42:24;-5.28;95.06
68804;SHT31;55787;52.678;13.314;2022-12-18T01:45:24;-5.34;94.45
68804;SHT31;55787;52.678;13.314;2022-12-18T01:47:54;-5.47;94.82
68804;SHT31;55787;52.678;13.314;2022-12-18T01:52:55;-5.85;97.54
68804;SHT31;55787;52.678;13.314;2022-12-18T01:55:25;-5.79;97.00
68804;SHT31;55787;52.678;13.314;2022-12-18T01:57:55;-5.76;96.77
68804;SHT31;55787;52.678;13.314;2022-12-18T02:00:24;-5.95;97.26
68804;SHT31;55787;52.678;13.314;2022-12-18T02:02:52;-5.95;97.51
68804;SHT31;55787;52.678;13.314;2022-12-18T02:08:10;-5.90;97.66
68804;SHT31;55787;52.678;13.314;2022-12-18T02:18:57;-5.79;97.15
68804;SHT31;55787;52.678;13.314;2022-12-18T02:21:45;-5.81;97.42
68804;SHT31;55787;52.678;13.314;2022-12-18T02:24:24;-5.78;97.21
68804;SHT31;55787;52.678;13.314;2022-12-18T02:26:57;-5.89;97.07
68804;SHT31;55787;52.678;13.314;2022-12-18T02:29:38;-5.79;97.13
68804;SHT31;55787;52.678;13.314;2022-12-18T02:32:09;-5.82;96.97
68804;SHT31;55787;52.678;13.314;2022-12-18T02:34:38;-5.62;96.47
68804;SHT31;55787;52.678;13.314;2022-12-18T02:37:09;-5.69;96.05
68804;SHT31;55787;52.678;13.314;2022-12-18T02:39:38;-5.61;96.14
68804;SHT31;55787;52.678;13.314;2022-12-18T02:42:06;-5.67;95.76
68804;SHT31;55787;52.678;13.314;2022-12-18T02:44:35;-5.61;96.15
68804;SHT31;55787;52.678;13.314;2022-12-18T02:47:10;-5.61;95.93
68804;SHT31;55787;52.678;13.314;2022-12-18T02:49:59;-5.64;95.81
68804;SHT31;55787;52.678;13.314;2022-12-18T02:57:49;-5.62;96.14
68804;SHT31;55787;52.678;13.314;2022-12-18T03:00:22;-5.57;95.90
68804;SHT31;55787;52.678;13.314;2022-12-18T03:03:00;-5.93;96.38
68804;SHT31;55787;52.678;13.314;2022-12-18T03:05:33;-5.99;97.33
68804;SHT31;55787;52.678;13.314;2022-12-18T03:08:18;-6.00;97.21
68804;SHT31;55787;52.678;13.314;2022-12-18T03:11:09;-5.95;97.01
68804;SHT31;55787;52.678;13.314;2022-12-18T03:13:43;-6.05;96.92
68804;SHT31;55787;52.678;13.314;2022-12-18T03:16:14;-5.96;97.00
68804;SHT31;55787;52.678;13.314;2022-12-18T03:18:50;-5.89;96.77
68804;SHT31;55787;52.678;13.314;2022-12-18T03:21:23;-5.85;96.36
68804;SHT31;55787;52.678;13.314;2022-12-18T03:23:54;-5.79;96.29
68804;SHT31;55787;52.678;13.314;2022-12-18T03:26:24;-5.83;95.51
68804;SHT31;55787;52.678;13.314;2022-12-18T03:29:09;-5.86;95.74
68804;SHT31;55787;52.678;13.314;2022-12-18T03:31:37;-5.95;96.34
68804;SHT31;55787;52.678;13.314;2022-12-18T03:34:12;-5.96;96.42
68804;SHT31;55787;52.678;13.314;2022-12-18T03:36:40;-5.89;96.01
68804;SHT31;55787;52.678;13.314;2022-12-18T03:39:07;-5.83;95.75
68804;SHT31;55787;52.678;13.314;2022-12-18T03:45:17;-5.75;95.31
68804;SHT31;55787;52.678;13.314;2022-12-18T03:47:15;-5.83;95.19
68804;SHT31;55787;52.678;13.314;2022-12-18T03:52:26;-5.83;94.93
68804;SHT31;55787;52.678;13.314;2022-12-18T03:54:56;-5.90;95.46
68804;SHT31;55787;52.678;13.314;2022-12-18T03:57:27;-5.86;95.32
68804;SHT31;55787;52.678;13.314;2022-12-18T03:59:58;-5.85;95.18
68804;SHT31;55787;52.678;13.314;2022-12-18T04:02:26;-5.82;94.61
68804;SHT31;55787;52.678;13.314;2022-12-18T04:04:58;-6.02;95.19
68804;SHT31;55787;52.678;13.314;2022-12-18T04:07:26;-6.02;95.64
68804;SHT31;55787;52.678;13.314;2022-12-18T04:09:56;-6.03;95.71
68804;SHT31;55787;52.678;13.314;2022-12-18T04:12:25;-6.03;95.78
68804;SHT31;55787;52.678;13.314;2022-12-18T04:14:52;-6.02;95.82
68804;SHT31;55787;52.678;13.314;2022-12-18T04:17:19;-5.95;95.47
68804;SHT31;55787;52.678;13.314;2022-12-18T04:19:45;-6.00;95.59
68804;SHT31;55787;52.678;13.314;2022-12-18T04:22:12;-5.98;95.44
68804;SHT31;55787;52.678;13.314;2022-12-18T04:24:39;-5.85;94.99
68804;SHT31;55787;52.678;13.314;2022-12-18T04:27:06;-6.00;94.73
68804;SHT31;55787;52.678;13.314;2022-12-18T04:29:33;-6.06;95.00
68804;SHT31;55787;52.678;13.314;2022-12-18T04:32:00;-6.11;95.29
68804;SHT31;55787;52.678;13.314;2022-12-18T04:34:27;-6.20;95.37
68804;SHT31;55787;52.678;13.314;2022-12-18T04:36:54;-6.23;95.77
68804;SHT31;55787;52.678;13.314;2022-12-18T04:39:21;-6.14;95.80
68804;SHT31;55787;52.678;13.314;2022-12-18T04:41:48;-6.16;95.50
68804;SHT31;55787;52.678;13.314;2022-12-18T04:44:14;-6.26;96.39
68804;SHT31;55787;52.678;13.314;2022-12-18T04:46:42;-6.21;96.02
68804;SHT31;55787;52.678;13.314;2022-12-18T04:49:09;-6.16;95.80
68804;SHT31;55787;52.678;13.314;2022-12-18T04:51:37;-6.09;95.70
68804;SHT31;55787;52.678;13.314;2022-12-18T04:54:03;-6.13;95.45
68804;SHT31;55787;52.678;13.314;2022-12-18T04:56:31;-6.07;95.56
68804;SHT31;55787;52.678;13.314;2022-12-18T04:58:57;-6.09;95.48
68804;SHT31;55787;52.678;13.314;2022-12-18T05:01:24;-6.19;96.38
68804;SHT31;55787;52.678;13.314;2022-12-18T05:04:00;-6.24;96.45
68804;SHT31;55787;52.678;13.314;2022-12-18T05:06:26;-6.44;97.48
68804;SHT31;55787;52.678;13.314;2022-12-18T05:08:53;-6.50;98.01
68804;SHT31;55787;52.678;13.314;2022-12-18T05:11:20;-6.54;97.94
68804;SHT31;55787;52.678;13.314;2022-12-18T05:13:46;-6.40;97.80
68804;SHT31;55787;52.678;13.314;2022-12-18T05:16:14;-6.33;97.39
68804;SHT31;55787;52.678;13.314;2022-12-18T05:18:41;-6.24;97.27
68804;SHT31;55787;52.678;13.314;2022-12-18T05:21:08;-6.21;97.13
68804;SHT31;55787;52.678;13.314;2022-12-18T05:23:34;-6.13;96.84
68804;SHT31;55787;52.678;13.314;2022-12-18T05:26:03;-6.14;96.37
68804;SHT31;55787;52.678;13.314;2022-12-18T05:28:32;-6.14;96.12
68804;SHT31;55787;52.678;13.314;2022-12-18T05:31:01;-6.33;96.72
68804;SHT31;55787;52.678;13.314;2022-12-18T05:33:31;-6.34;96.23
68804;SHT31;55787;52.678;13.314;2022-12-18T05:36:00;-6.38;96.49
68804;SHT31;55787;52.678;13.314;2022-12-18T05:38:28;-6.38;96.68
68804;SHT31;55787;52.678;13.314;2022-12-18T05:40:56;-6.41;97.01
68804;SHT31;55787;52.678;13.314;2022-12-18T05:43:24;-6.36;96.77
68804;SHT31;55787;52.678;13.314;2022-12-18T05:45:52;-6.26;95.66
68804;SHT31;55787;52.678;13.314;2022-12-18T05:48:19;-6.21;95.20
68804;SHT31;55787;52.678;13.314;2022-12-18T05:50:49;-6.26;95.25
68804;SHT31;55787;52.678;13.314;2022-12-18T05:53:17;-6.23;95.27
68804;SHT31;55787;52.678;13.314;2022-12-18T05:55:45;-6.27;95.35
68804;SHT31;55787;52.678;13.314;2022-12-18T05:58:12;-6.26;95.05
68804;SHT31;55787;52.678;13.314;2022-12-18T06:00:42;-6.30;95.22
68804;SHT31;55787;52.678;13.314;2022-12-18T06:03:11;-6.21;95.12
68804;SHT31;55787;52.678;13.314;2022-12-18T06:05:41;-6.09;94.45
68804;SHT31;55787;52.678;13.314;2022-12-18T06:08:08;-6.16;94.32
68804;SHT31;55787;52.678;13.314;2022-12-18T06:10:35;-6.24;94.44
68804;SHT31;55787;52.678;13.314;2022-12-18T06:13:02;-6.21;94.35
68804;SHT31;55787;52.678;13.314;2022-12-18T06:15:29;-6.27;94.27
68804;SHT31;55787;52.678;13.314;2022-12-18T06:17:55;-6.41;94.99
68804;SHT31;55787;52.678;13.314;2022-12-18T06:20:22;-6.51;96.22
68804;SHT31;55787;52.678;13.314;2022-12-18T06:22:54;-6.55;96.32
68804;SHT31;55787;52.678;13.314;2022-12-18T06:25:21;-6.44;96.13
68804;SHT31;55787;52.678;13.314;2022-12-18T06:27:47;-6.44;95.62
68804;SHT31;55787;52.678;13.314;2022-12-18T06:30:14;-6.38;95.39
68804;SHT31;55787;52.678;13.314;2022-12-18T06:32:41;-6.47;95.48
68804;SHT31;55787;52.678;13.314;2022-12-18T06:35:08;-6.50;96.27
68804;SHT31;55787;52.678;13.314;2022-12-18T06:37:34;-6.36;95.55
68804;SHT31;55787;52.678;13.314;2022-12-18T06:40:01;-6.34;95.39
68804;SHT31;55787;52.678;13.314;2022-12-18T06:42:28;-6.44;95.67
68804;SHT31;55787;52.678;13.314;2022-12-18T06:44:55;-6.50;95.87
68804;SHT31;55787;52.678;13.314;2022-12-18T06:47:21;-6.41;95.70
68804;SHT31;55787;52.678;13.314;2022-12-18T06:49:48;-6.41;95.20
68804;SHT31;55787;52.678;13.314;2022-12-18T06:52:16;-6.44;95.59
68804;SHT31;55787;52.678;13.314;2022-12-18T06:54:42;-6.44;95.75
68804;SHT31;55787;52.678;13.314;2022-12-18T06:57:09;-6.42;95.98
68804;SHT31;55787;52.678;13.314;2022-12-18T06:59:36;-6.45;96.08
68804;SHT31;55787;52.678;13.314;2022-12-18T07:02:02;-6.33;95.42
68804;SHT31;55787;52.678;13.314;2022-12-18T07:04:30;-6.31;95.40
68804;SHT31;55787;52.678;13.314;2022-12-18T07:06:56;-6.31;95.40
68804;SHT31;55787;52.678;13.314;2022-12-18T07:09:24;-6.37;95.41
68804;SHT31;55787;52.678;13.314;2022-12-18T07:11:51;-6.24;94.86
68804;SHT31;55787;52.678;13.314;2022-12-18T07:14:18;-6.20;94.46
68804;SHT31;55787;52.678;13.314;2022-12-18T07:16:44;-6.26;94.67
68804;SHT31;55787;52.678;13.314;2022-12-18T07:19:11;-6.27;94.99
68804;SHT31;55787;52.678;13.314;2022-12-18T07:21:38;-6.30;95.08
68804;SHT31;55787;52.678;13.314;2022-12-18T07:24:05;-6.26;95.45
68804;SHT31;55787;52.678;13.314;2022-12-18T07:26:32;-6.30;95.50
68804;SHT31;55787;52.678;13.314;2022-12-18T07:28:58;-6.33;95.59
68804;SHT31;55787;52.678;13.314;2022-12-18T07:31:25;-6.24;95.78
68804;SHT31;55787;52.678;13.314;2022-12-18T07:33:53;-6.23;95.53
68804;SHT31;55787;52.678;13.314;2022-12-18T07:36:20;-6.20;95.61
68804;SHT31;55787;52.678;13.314;2022-12-18T07:38:48;-6.16;95.47
68804;SHT31;55787;52.678;13.314;2022-12-18T07:41:15;-6.11;95.24
68804;SHT31;55787;52.678;13.314;2022-12-18T07:43:42;-6.19;95.55
68804;SHT31;55787;52.678;13.314;2022-12-18T07:46:11;-6.06;95.26
68804;SHT31;55787;52.678;13.314;2022-12-18T07:48:40;-6.13;95.03
68804;SHT31;55787;52.678;13.314;2022-12-18T07:51:07;-6.10;95.28
68804;SHT31;55787;52.678;13.314;2022-12-18T07:53:35;-6.13;95.19
68804;SHT31;55787;52.678;13.314;2022-12-18T07:56:05;-6.14;95.62
68804;SHT31;55787;52.678;13.314;2022-12-18T07:58:53;-6.07;95.55
68804;SHT31;55787;52.678;13.314;2022-12-18T08:01:20;-6.03;95.48
68804;SHT31;55787;52.678;13.314;2022-12-18T08:03:47;-5.95;95.30
68804;SHT31;55787;52.678;13.314;2022-12-18T08:06:14;-5.93;95.04
68804;SHT31;55787;52.678;13.314;2022-12-18T08:08:41;-5.76;94.66
68804;SHT31;55787;52.678;13.314;2022-12-18T08:11:08;-5.89;94.54
68804;SHT31;55787;52.678;13.314;2022-12-18T08:13:35;-5.86;94.91
68804;SHT31;55787;52.678;13.314;2022-12-18T08:16:04;-5.88;94.82
68804;SHT31;55787;52.678;13.314;2022-12-18T08:18:32;-5.89;94.81
68804;SHT31;55787;52.678;13.314;2022-12-18T08:21:29;-5.89;95.26
68804;SHT31;55787;52.678;13.314;2022-12-18T08:23:58;-5.79;94.45
68804;SHT31;55787;52.678;13.314;2022-12-18T08:26:27;-5.81;94.48
68804;SHT31;55787;52.678;13.314;2022-12-18T08:28:55;-5.88;94.61
68804;SHT31;55787;52.678;13.314;2022-12-18T08:31:23;-5.96;94.73
68804;SHT31;55787;52.678;13.314;2022-12-18T08:33:51;-6.06;95.14
68804;SHT31;55787;52.678;13.314;2022-12-18T08:36:20;-6.07;95.59
68804;SHT31;55787;52.678;13.314;2022-12-18T08:38:47;-5.89;94.83
68804;SHT31;55787;52.678;13.314;2022-12-18T08:41:15;-5.85;94.66
68804;SHT31;55787;52.678;13.314;2022-12-18T08:43:42;-5.82;94.60
68804;SHT31;55787;52.678;13.314;2022-12-18T08:46:33;-5.79;94.41
68804;SHT31;55787;52.678;13.314;2022-12-18T08:49:00;-5.75;94.62
68804;SHT31;55787;52.678;13.314;2022-12-18T08:51:28;-5.61;94.25
68804;SHT31;55787;52.678;13.314;2022-12-18T08:53:55;-5.58;93.78
68804;SHT31;55787;52.678;13.314;2022-12-18T08:56:21;-5.61;93.78
68804;SHT31;55787;52.678;13.314;2022-12-18T08:58:51;-5.59;94.28
68804;SHT31;55787;52.678;13.314;2022-12-18T09:01:18;-5.51;93.75
68804;SHT31;55787;52.678;13.314;2022-12-18T09:03:45;-5.52;93.49
68804;SHT31;55787;52.678;13.314;2022-12-18T09:06:15;-5.47;93.37
68804;SHT31;55787;52.678;13.314;2022-12-18T09:08:43;-5.54;93.55
68804;SHT31;55787;52.678;13.314;2022-12-18T09:11:13;-5.48;93.59
68804;SHT31;55787;52.678;13.314;2022-12-18T09:13:40;-5.44;93.32
68804;SHT31;55787;52.678;13.314;2022-12-18T09:16:08;-5.35;93.07
68804;SHT31;55787;52.678;13.314;2022-12-18T09:18:34;-5.32;93.11
68804;SHT31;55787;52.678;13.314;2022-12-18T09:21:10;-5.37;93.31
68804;SHT31;55787;52.678;13.314;2022-12-18T09:23:37;-5.37;93.22
68804;SHT31;55787;52.678;13.314;2022-12-18T09:26:04;-5.31;93.07
68804;SHT31;55787;52.678;13.314;2022-12-18T09:28:31;-5.35;93.19
68804;SHT31;55787;52.678;13.314;2022-12-18T09:30:57;-5.30;93.21
68804;SHT31;55787;52.678;13.314;2022-12-18T09:33:24;-5.28;93.28
68804;SHT31;55787;52.678;13.314;2022-12-18T09:35:51;-5.28;93.30
68804;SHT31;55787;52.678;13.314;2022-12-18T09:38:19;-5.27;93.42
68804;SHT31;55787;52.678;13.314;2022-12-18T09:40:53;-5.24;93.56
68804;SHT31;55787;52.678;13.314;2022-12-18T09:43:33;-5.11;93.02
68804;SHT31;55787;52.678;13.314;2022-12-18T09:46:06;-5.16;92.43
68804;SHT31;55787;52.678;13.314;2022-12-18T09:48:40;-5.07;93.01
68804;SHT31;55787;52.678;13.314;2022-12-18T09:51:15;-5.03;92.08
68804;SHT31;55787;52.678;13.314;2022-12-18T09:53:47;-4.97;92.44
68804;SHT31;55787;52.678;13.314;2022-12-18T09:56:19;-4.97;91.69
68804;SHT31;55787;52.678;13.314;2022-12-18T09:58:57;-5.03;92.20
68804;SHT31;55787;52.678;13.314;2022-12-18T10:01:27;-5.07;92.08
68804;SHT31;55787;52.678;13.314;2022-12-18T10:04:08;-5.17;92.29
68804;SHT31;55787;52.678;13.314;2022-12-18T10:15:40;-5.01;92.53
68804;SHT31;55787;52.678;13.314;2022-12-18T10:18:42;-5.01;92.65
68804;SHT31;55787;52.678;13.314;2022-12-18T10:21:18;-4.99;92.69
68804;SHT31;55787;52.678;13.314;2022-12-18T10:24:03;-5.08;92.37
68804;SHT31;55787;52.678;13.314;2022-12-18T10:26:34;-4.96;92.15
68804;SHT31;55787;52.678;13.314;2022-12-18T10:29:08;-4.96;92.49
68804;SHT31;55787;52.678;13.314;2022-12-18T10:31:37;-4.93;92.19
68804;SHT31;55787;52.678;13.314;2022-12-18T10:34:04;-4.87;92.45
68804;SHT31;55787;52.678;13.314;2022-12-18T10:36:30;-4.82;92.31
68804;SHT31;55787;52.678;13.314;2022-12-18T10:39:15;-4.89;92.38
68804;SHT31;55787;52.678;13.314;2022-12-18T10:41:42;-4.86;92.83
68804;SHT31;55787;52.678;13.314;2022-12-18T10:44:22;-4.80;92.65
68804;SHT31;55787;52.678;13.314;2022-12-18T10:46:53;-4.83;92.72
68804;SHT31;55787;52.678;13.314;2022-12-18T10:49:25;-4.72;92.62
68804;SHT31;55787;52.678;13.314;2022-12-18T10:52:20;-4.65;92.56
68804;SHT31;55787;52.678;13.314;2022-12-18T10:54:51;-4.64;92.33
68804;SHT31;55787;52.678;13.314;2022-12-18T10:57:32;-4.61;92.60
68804;SHT31;55787;52.678;13.314;2022-12-18T11:02:46;-4.45;92.79
68804;SHT31;55787;52.678;13.314;2022-12-18T11:05:45;-4.41;92.54
68804;SHT31;55787;52.678;13.314;2022-12-18T11:08:20;-4.51;92.76
68804;SHT31;55787;52.678;13.314;2022-12-18T11:10:49;-4.54;93.24
68804;SHT31;55787;52.678;13.314;2022-12-18T11:13:22;-4.41;93.26
68804;SHT31;55787;52.678;13.314;2022-12-18T11:15:50;-4.41;93.69
68804;SHT31;55787;52.678;13.314;2022-12-18T11:18:22;-4.40;93.62
68804;SHT31;55787;52.678;13.314;2022-12-18T11:21:06;-4.24;93.51
68804;SHT31;55787;52.678;13.314;2022-12-18T11:23:34;-4.18;92.99
68804;SHT31;55787;52.678;13.314;2022-12-18T11:26:03;-4.13;93.29
68804;SHT31;55787;52.678;13.314;2022-12-18T11:28:51;-4.11;93.51
68804;SHT31;55787;52.678;13.314;2022-12-18T11:31:26;-4.03;93.76
68804;SHT31;55787;52.678;13.314;2022-12-18T11:36:57;-3.87;92.84
68804;SHT31;55787;52.678;13.314;2022-12-18T11:39:38;-3.90;93.01
68804;SHT31;55787;52.678;13.314;2022-12-18T11:50:16;-3.91;93.14
68804;SHT31;55787;52.678;13.314;2022-12-18T11:52:44;-3.83;93.01
68804;SHT31;55787;52.678;13.314;2022-12-18T11:55:16;-3.77;93.58
68804;SHT31;55787;52.678;13.314;2022-12-18T12:00:26;-3.63;92.71
68804;SHT31;55787;52.678;13.314;2022-12-18T12:05:59;-3.65;92.91
68804;SHT31;55787;52.678;13.314;2022-12-18T12:08:47;-3.51;92.25
68804;SHT31;55787;52.678;13.314;2022-12-18T12:11:48;-3.51;91.96
68804;SHT31;55787;52.678;13.314;2022-12-18T12:22:43;-3.62;93.03
68804;SHT31;55787;52.678;13.314;2022-12-18T12:30:38;-3.69;93.13
68804;SHT31;55787;52.678;13.314;2022-12-18T12:33:32;-3.62;92.78
68804;SHT31;55787;52.678;13.314;2022-12-18T12:36:22;-3.70;92.88
68804;SHT31;55787;52.678;13.314;2022-12-18T12:38:59;-3.65;92.85
68804;SHT31;55787;52.678;13.314;2022-12-18T12:41:31;-3.63;92.88
68804;SHT31;55787;52.678;13.314;2022-12-18T12:44:42;-3.53;92.63
68804;SHT31;55787;52.678;13.314;2022-12-18T12:47:18;-3.55;92.42
68804;SHT31;55787;52.678;13.314;2022-12-18T12:49:47;-3.66;92.66
68804;SHT31;55787;52.678;13.314;2022-12-18T12:52:54;-3.59;92.81
68804;SHT31;55787;52.678;13.314;2022-12-18T12:55:27;-3.69;92.91
68804;SHT31;55787;52.678;13.314;2022-12-18T12:58:20;-3.60;92.73
68804;SHT31;55787;52.678;13.314;2022-12-18T13:03:41;-3.91;93.29
68804;SHT31;55787;52.678;13.314;2022-12-18T13:06:16;-3.90;93.58
68804;SHT31;55787;52.678;13.314;2022-12-18T13:09:11;-3.96;93.72
68804;SHT31;55787;52.678;13.314;2022-12-18T13:11:46;-3.93;94.04
68804;SHT31;55787;52.678;13.314;2022-12-18T13:14:41;-3.82;93.70
68804;SHT31;55787;52.678;13.314;2022-12-18T13:17:33;-3.84;93.49
68804;SHT31;55787;52.678;13.314;2022-12-18T13:20:04;-3.87;93.48
68804;SHT31;55787;52.678;13.314;2022-12-18T13:22:38;-3.87;93.94
68804;SHT31;55787;52.678;13.314;2022-12-18T13:25:34;-3.82;93.14
68804;SHT31;55787;52.678;13.314;2022-12-18T13:28:05;-3.80;93.56
68804;SHT31;55787;52.678;13.314;2022-12-18T13:41:42;-3.93;93.62
68804;SHT31;55787;52.678;13.314;2022-12-18T13:43:48;-3.94;93.58
68804;SHT31;55787;52.678;13.314;2022-12-18T13:48:57;-4.01;93.21
68804;SHT31;55787;52.678;13.314;2022-12-18T13:51:25;-4.08;93.87
68804;SHT31;55787;52.678;13.314;2022-12-18T13:54:01;-4.10;93.68
68804;SHT31;55787;52.678;13.314;2022-12-18T13:56:31;-4.15;93.72
68804;SHT31;55787;52.678;13.314;2022-12-18T14:01:52;-4.15;94.17
68804;SHT31;55787;52.678;13.314;2022-12-18T14:04:25;-4.15;94.00
68804;SHT31;55787;52.678;13.314;2022-12-18T14:07:04;-4.14;94.07
68804;SHT31;55787;52.678;13.314;2022-12-18T14:09:40;-4.14;93.98
68804;SHT31;55787;52.678;13.314;2022-12-18T14:12:18;-4.14;93.87
68804;SHT31;55787;52.678;13.314;2022-12-18T14:15:14;-4.15;93.69
68804;SHT31;55787;52.678;13.314;2022-12-18T14:17:47;-4.19;94.06
68804;SHT31;55787;52.678;13.314;2022-12-18T14:20:15;-4.29;94.59
68804;SHT31;55787;52.678;13.314;2022-12-18T14:22:49;-4.17;94.07
68804;SHT31;55787;52.678;13.314;2022-12-18T14:25:19;-4.19;94.20
68804;SHT31;55787;52.678;13.314;2022-12-18T14:27:51;-4.21;94.17
68804;SHT31;55787;52.678;13.314;2022-12-18T14:30:31;-4.24;94.34
68804;SHT31;55787;52.678;13.314;2022-12-18T14:33:18;-4.31;94.53
68804;SHT31;55787;52.678;13.314;2022-12-18T14:35:57;-4.29;94.36
68804;SHT31;55787;52.678;13.314;2022-12-18T14:38:39;-4.25;94.44
68804;SHT31;55787;52.678;13.314;2022-12-18T14:43:37;-4.29;94.87
68804;SHT31;55787;52.678;13.314;2022-12-18T14:46:06;-4.27;94.73
68804;SHT31;55787;52.678;13.314;2022-12-18T14:48:52;-4.35;95.00
68804;SHT31;55787;52.678;13.314;2022-12-18T14:51:26;-4.35;95.20
68804;SHT31;55787;52.678;13.314;2022-12-18T14:54:04;-4.38;95.55
68804;SHT31;55787;52.678;13.314;2022-12-18T14:56:36;-4.28;95.31
68804;SHT31;55787;52.678;13.314;2022-12-18T15:09:38;-4.15;94.99
68804;SHT31;55787;52.678;13.314;2022-12-18T15:12:28;-4.24;95.30
68804;SHT31;55787;52.678;13.314;2022-12-18T15:14:59;-4.24;95.43
68804;SHT31;55787;52.678;13.314;2022-12-18T15:17:26;-4.19;95.31
68804;SHT31;55787;52.678;13.314;2022-12-18T15:20:00;-4.05;94.69
68804;SHT31;55787;52.678;13.314;2022-12-18T15:22:28;-4.07;94.62
68804;SHT31;55787;52.678;13.314;2022-12-18T15:24:57;-4.11;94.59
68804;SHT31;55787;52.678;13.314;2022-12-18T15:27:35;-4.22;95.13
68804;SHT31;55787;52.678;13.314;2022-12-18T15:32:37;-4.29;95.42
68804;SHT31;55787;52.678;13.314;2022-12-18T15:37:34;-4.25;95.26
68804;SHT31;55787;52.678;13.314;2022-12-18T15:40:00;-4.27;95.80
68804;SHT31;55787;52.678;13.314;2022-12-18T15:42:29;-4.21;95.58
68804;SHT31;55787;52.678;13.314;2022-12-18T15:45:14;-4.15;95.28
68804;SHT31;55787;52.678;13.314;2022-12-18T15:47:43;-4.11;95.09
68804;SHT31;55787;52.678;13.314;2022-12-18T15:50:10;-4.13;95.15
68804;SHT31;55787;52.678;13.314;2022-12-18T15:52:42;-4.14;95.32
68804;SHT31;55787;52.678;13.314;2022-12-18T15:55:20;-4.10;94.86
68804;SHT31;55787;52.678;13.314;2022-12-18T15:58:08;-4.17;94.76
68804;SHT31;55787;52.678;13.314;2022-12-18T16:00:38;-4.18;94.86
68804;SHT31;55787;52.678;13.314;2022-12-18T16:03:04;-4.21;94.96
68804;SHT31;55787;52.678;13.314;2022-12-18T16:05:32;-4.22;94.53
68804;SHT31;55787;52.678;13.314;2022-12-18T16:07:59;-4.25;94.34
68804;SHT31;55787;52.678;13.314;2022-12-18T16:10:26;-4.27;94.61
68804;SHT31;55787;52.678;13.314;2022-12-18T16:12:53;-4.28;94.71
68804;SHT31;55787;52.678;13.314;2022-12-18T16:15:20;-4.31;94.54
68804;SHT31;55787;52.678;13.314;2022-12-18T16:17:50;-4.40;94.71
68804;SHT31;55787;52.678;13.314;2022-12-18T16:20:20;-4.36;94.91
68804;SHT31;55787;52.678;13.314;2022-12-18T16:22:48;-4.31;94.69
68804;SHT31;55787;52.678;13.314;2022-12-18T16:25:20;-4.24;94.67
68804;SHT31;55787;52.678;13.314;2022-12-18T16:27:48;-4.32;94.58
68804;SHT31;55787;52.678;13.314;2022-12-18T16:30:21;-4.31;94.70
68804;SHT31;55787;52.678;13.314;2022-12-18T16:32:48;-4.28;94.68
68804;SHT31;55787;52.678;13.314;2022-12-18T16:35:16;-4.25;94.63
68804;SHT31;55787;52.678;13.314;2022-12-18T16:37:43;-4.22;94.52
68804;SHT31;55787;52.678;13.314;2022-12-18T16:40:13;-4.22;94.52
68804;SHT31;55787;52.678;13.314;2022-12-18T16:42:42;-4.27;94.46
68804;SHT31;55787;52.678;13.314;2022-12-18T16:45:15;-4.27;94.55
68804;SHT31;55787;52.678;13.314;2022-12-18T16:47:42;-4.38;94.74
68804;SHT31;55787;52.678;13.314;2022-12-18T16:50:09;-4.36;95.14
68804;SHT31;55787;52.678;13.314;2022-12-18T16:52:36;-4.41;95.20
68804;SHT31;55787;52.678;13.314;2022-12-18T16:55:03;-4.31;95.26
68804;SHT31;55787;52.678;13.314;2022-12-18T16:57:30;-4.38;95.07
68804;SHT31;55787;52.678;13.314;2022-12-18T16:59:57;-4.32;94.61
68804;SHT31;55787;52.678;13.314;2022-12-18T17:02:30;-4.34;94.75
68804;SHT31;55787;52.678;13.314;2022-12-18T17:04:57;-4.36;94.91
68804;SHT31;55787;52.678;13.314;2022-12-18T17:07:25;-4.31;94.73
68804;SHT31;55787;52.678;13.314;2022-12-18T17:09:52;-4.25;94.22
68804;SHT31;55787;52.678;13.314;2022-12-18T17:12:20;-4.34;94.51
68804;SHT31;55787;52.678;13.314;2022-12-18T17:14:46;-4.34;94.51
68804;SHT31;55787;52.678;13.314;2022-12-18T17:17:14;-4.25;94.06
68804;SHT31;55787;52.678;13.314;2022-12-18T17:19:50;-4.24;94.29
68804;SHT31;55787;52.678;13.314;2022-12-18T17:22:17;-4.22;94.10
68804;SHT31;55787;52.678;13.314;2022-12-18T17:24:45;-4.27;94.48